Bennettsville, South Carolina
Current Conditions -  °F | °C
As of 5:55 PM on Friday 28 Nov 2014 (Local Time) from KBBP Reporting Station
Clear Clear  
Wind Chill: 39°   Ceiling: Unl
Heat Index: 39°   Visibility: 10mi
Dew Point: 19°   Wind: 0mph
Humidity: 45%   Direction: NA
Pressure: 30.31"   Gusts: NA
Location:  34.61°N, 79.68°W
Report Text: KBBP 282255Z AUTO 00000KT 10SM CLR 04/M07 A3031 RMK AO2
Loading
Personal Weather Stations






























Interactive Weather Map New forecast layout! Learn more

10-Day Weather Forecast

Advertisements
Track Severe Weather on mobile